Time;durP1;ratioP1;P1;durP2;ratioP2;P2;SDS_P1;SDS_P2;PMS_P1;PMS_P2;Temp;Humidity;BMP_temperature;BMP_pressure;BME280_temperature;BME280_humidity;BME280_pressure;Samples;Min_cycle;Max_cycle;Signal;HPM_P1;HPM_P2
2021/10/12 00:02:56;;;;;;;12.23;8.68;;;;;;;22.14;49.25;94491.81;5304183;22;20041;-65
2021/10/12 00:05:22;;;;;;;12.23;8.25;;;;;;;22.13;49.13;94495.78;5027279;28;20102;-65
2021/10/12 00:07:47;;;;;;;12.90;8.82;;;;;;;22.10;49.86;94496.81;5028444;28;20826;-65
2021/10/12 00:10:13;;;;;;;13.10;9.13;;;;;;;22.11;49.46;94492.84;5028485;28;20533;-65
2021/10/12 00:12:39;;;;;;;12.95;8.57;;;;;;;22.12;49.46;94494.34;5028394;28;20025;-65
2021/10/12 00:15:05;;;;;;;13.70;9.38;;;;;;;22.09;49.17;94489.91;5028361;28;20033;-65
2021/10/12 00:17:30;;;;;;;13.32;9.07;;;;;;;22.09;49.50;94500.78;5028444;28;20029;-65
2021/10/12 00:19:56;;;;;;;12.95;8.48;;;;;;;22.09;49.17;94495.34;5028096;28;20018;-64
2021/10/12 00:22:21;;;;;;;12.30;8.90;;;;;;;22.07;49.37;94492.41;5028403;28;20032;-65
2021/10/12 00:24:46;;;;;;;12.30;8.93;;;;;;;22.07;49.31;94497.84;5028290;28;20029;-67
2021/10/12 00:27:12;;;;;;;12.73;8.95;;;;;;;22.05;49.45;94494.19;5028428;28;20435;-67
2021/10/12 00:29:37;;;;;;;13.93;9.40;;;;;;;22.07;49.24;94500.56;5028230;28;20040;-67
2021/10/12 00:32:03;;;;;;;12.27;8.43;;;;;;;22.06;49.29;94501.81;5027987;28;20518;-65
2021/10/12 00:34:29;;;;;;;12.10;8.32;;;;;;;22.03;49.36;94502.84;5027901;28;20488;-66
2021/10/12 00:36:54;;;;;;;12.60;8.85;;;;;;;22.05;49.31;94505.06;5028067;28;20026;-66
2021/10/12 00:39:19;;;;;;;11.50;8.90;;;;;;;22.05;49.24;94505.78;5028158;28;20088;-65
2021/10/12 00:41:45;;;;;;;12.88;9.45;;;;;;;22.01;49.23;94502.59;5027814;28;20025;-65
2021/10/12 00:44:11;;;;;;;13.52;9.10;;;;;;;22.04;49.33;94519.88;5027828;28;20033;-65
2021/10/12 00:46:36;;;;;;;12.60;8.50;;;;;;;22.03;49.24;94513.72;5027919;28;20113;-66
2021/10/12 00:49:02;;;;;;;13.50;9.27;;;;;;;22.02;49.43;94506.81;5027973;28;20772;-66
2021/10/12 00:51:27;;;;;;;14.20;8.68;;;;;;;22.01;49.39;94510.75;5027549;28;20487;-66
2021/10/12 00:53:53;;;;;;;12.73;9.77;;;;;;;22.00;49.33;94509.31;5026056;28;20029;-65
2021/10/12 00:56:19;;;;;;;14.18;9.45;;;;;;;22.01;49.48;94515.47;5027490;28;20336;-66
2021/10/12 00:58:45;;;;;;;13.80;9.45;;;;;;;22.00;49.39;94509.31;5026438;28;20029;-66
2021/10/12 01:01:10;;;;;;;12.40;8.45;;;;;;;21.98;49.31;94517.22;5026339;28;20013;-65
2021/10/12 01:03:35;;;;;;;12.93;8.75;;;;;;;21.98;49.26;94522.66;5009183;28;20439;-66
2021/10/12 01:06:01;;;;;;;13.00;8.90;;;;;;;21.97;49.54;94515.75;5027419;28;20040;-66
2021/10/12 01:08:26;;;;;;;13.07;9.15;;;;;;;21.97;49.47;94526.63;5026109;28;20066;-66
2021/10/12 01:10:52;;;;;;;11.13;8.10;;;;;;;21.97;49.63;94521.19;5027180;28;20510;-65
2021/10/12 01:13:18;;;;;;;13.00;9.02;;;;;;;21.94;49.44;94516.03;5027108;28;20051;-66
2021/10/12 01:15:44;;;;;;;12.25;8.60;;;;;;;21.94;49.34;94524.94;5026162;28;20045;-66
2021/10/12 01:18:13;;;;;;;13.23;9.10;;;;;;;21.95;49.37;94518.25;5027268;28;20029;-66
2021/10/12 01:20:38;;;;;;;12.57;8.60;;;;;;;21.95;49.51;94526.41;5009566;28;20033;-66
2021/10/12 01:23:04;;;;;;;12.75;8.80;;;;;;;21.94;49.47;94527.66;5025611;28;20816;-66
2021/10/12 01:25:29;;;;;;;13.55;8.75;;;;;;;21.92;49.50;94516.53;5027305;28;20033;-65
2021/10/12 01:27:55;;;;;;;14.18;9.00;;;;;;;21.94;49.64;94526.91;5027157;28;20014;-65
2021/10/12 01:30:20;;;;;;;12.63;9.02;;;;;;;21.92;49.45;94524.69;5027360;28;20056;-66
2021/10/12 01:32:46;;;;;;;11.65;8.55;;;;;;;21.92;49.43;94513.81;5027065;28;20029;-65
2021/10/12 01:35:13;;;;;;;12.90;8.82;;;;;;;21.92;49.42;94519.25;5025674;28;20094;-66
2021/10/12 01:37:38;;;;;;;12.55;8.48;;;;;;;21.92;49.46;94513.81;5027056;28;20014;-65
2021/10/12 01:40:04;;;;;;;14.00;9.45;;;;;;;21.92;49.64;94523.25;5028751;28;20040;-66
2021/10/12 01:42:30;;;;;;;11.73;7.88;;;;;;;21.91;49.45;94517.06;5029935;28;20483;-66
2021/10/12 01:44:57;;;;;;;12.73;8.77;;;;;;;21.88;49.46;94517.34;5031639;28;20032;-66
2021/10/12 01:47:28;;;;;;;12.85;8.73;;;;;;;21.90;49.44;94523.00;5015023;28;20021;-66
2021/10/12 01:49:54;;;;;;;12.50;8.50;;;;;;;21.90;49.63;94520.28;5027249;28;20034;-66
2021/10/12 01:52:19;;;;;;;12.38;8.80;;;;;;;21.89;49.57;94514.13;5028083;28;20470;-65
2021/10/12 01:54:46;;;;;;;12.68;8.85;;;;;;;21.89;49.56;94507.97;5036888;28;20028;-65
2021/10/12 01:57:11;;;;;;;13.57;8.65;;;;;;;21.86;49.62;94503.53;5027756;28;20153;-66
2021/10/12 01:59:36;;;;;;;12.27;8.68;;;;;;;21.84;49.56;94501.34;5027031;28;20627;-66
2021/10/12 02:02:02;;;;;;;11.63;8.43;;;;;;;21.83;49.55;94493.69;5025418;28;20021;-66
2021/10/12 02:04:28;;;;;;;12.60;8.93;;;;;;;21.87;49.48;94494.13;5026355;28;20048;-66
2021/10/12 02:06:55;;;;;;;12.05;8.25;;;;;;;21.86;49.65;94487.22;5026215;28;20063;-66
2021/10/12 02:09:20;;;;;;;12.52;8.65;;;;;;;21.86;49.48;94498.09;5024671;28;20446;-65
2021/10/12 02:11:46;;;;;;;13.05;9.05;;;;;;;21.85;49.61;94486.47;5025868;28;20033;-66
2021/10/12 02:14:11;;;;;;;12.80;7.75;;;;;;;21.84;49.64;94478.84;5026234;28;20021;-66
2021/10/12 02:16:37;;;;;;;11.68;8.60;;;;;;;21.83;49.75;94477.38;5025766;28;20116;-66
2021/10/12 02:19:03;;;;;;;12.57;8.55;;;;;;;21.83;49.64;94466.50;5024595;28;20025;-66
2021/10/12 02:21:28;;;;;;;12.43;8.60;;;;;;;21.82;49.62;94465.03;5026154;28;20025;-66
2021/10/12 02:23:53;;;;;;;12.80;8.80;;;;;;;21.78;49.54;94459.13;5025769;28;20066;-66
2021/10/12 02:26:19;;;;;;;11.13;8.07;;;;;;;21.81;49.61;94463.56;5024281;28;20029;-66
2021/10/12 02:28:44;;;;;;;12.95;8.77;;;;;;;21.80;49.69;94472.97;5025878;28;20022;-66
2021/10/12 02:31:10;;;;;;;11.93;8.68;;;;;;;21.81;49.65;94469.00;5026102;28;20079;-66
2021/10/12 02:33:35;;;;;;;10.98;8.10;;;;;;;21.78;49.67;94461.84;5025632;28;20036;-66
2021/10/12 02:36:01;;;;;;;10.70;7.75;;;;;;;21.78;49.76;94459.13;5024195;28;20037;-66
2021/10/12 02:38:26;;;;;;;12.38;9.05;;;;;;;21.76;49.51;94461.66;5024075;28;20032;-66
2021/10/12 02:40:52;;;;;;;10.80;8.10;;;;;;;21.76;49.71;94461.66;5008042;28;20033;-66
2021/10/12 02:43:18;;;;;;;13.05;8.48;;;;;;;21.76;49.75;94467.06;5024281;28;20026;-66
2021/10/12 02:45:43;;;;;;;12.65;8.27;;;;;;;21.75;49.62;94460.91;5024357;28;20065;-66
2021/10/12 02:48:09;;;;;;;11.68;8.20;;;;;;;21.75;49.74;94465.59;5025033;28;20048;-66
2021/10/12 02:50:35;;;;;;;12.10;8.45;;;;;;;21.74;49.69;94469.59;5024478;28;20030;-66
2021/10/12 02:53:00;;;;;;;12.45;8.13;;;;;;;21.73;49.76;94471.53;5025584;28;20021;-67
2021/10/12 02:55:25;;;;;;;12.02;7.85;;;;;;;21.73;49.78;94474.25;5025335;28;20026;-66
2021/10/12 02:57:51;;;;;;;11.07;7.88;;;;;;;21.69;49.65;94473.09;5023884;28;20055;-66
2021/10/12 03:00:16;;;;;;;12.93;8.55;;;;;;;21.72;50.04;94461.19;5024094;28;20107;-66
2021/10/12 03:02:42;;;;;;;12.30;8.27;;;;;;;21.71;49.81;94470.59;5024120;28;20045;-66
2021/10/12 03:05:08;;;;;;;12.25;8.27;;;;;;;21.70;49.91;94471.84;5023995;28;20488;-66
2021/10/12 03:07:33;;;;;;;11.70;7.90;;;;;;;21.70;49.88;94477.28;5025246;28;20068;-66
2021/10/12 03:09:58;;;;;;;11.25;8.02;;;;;;;21.70;49.51;94466.41;5025492;28;20021;-66
2021/10/12 03:12:24;;;;;;;10.70;7.55;;;;;;;21.69;49.80;94465.69;5025022;28;20029;-66
2021/10/12 03:14:49;;;;;;;10.75;7.43;;;;;;;21.69;49.69;94470.38;5007052;28;20109;-66
2021/10/12 03:17:15;;;;;;;10.02;7.28;;;;;;;21.68;49.72;94460.75;5025211;28;20029;-66
2021/10/12 03:19:40;;;;;;;11.52;7.72;;;;;;;21.68;49.73;94468.91;5025190;28;20021;-66
2021/10/12 03:22:13;;;;;;;11.13;7.70;;;;;;;21.68;49.65;94466.19;5024494;28;20044;-66
2021/10/12 03:24:39;;;;;;;11.25;7.35;;;;;;;21.64;49.77;94465.72;5025164;28;20173;-66
2021/10/12 03:27:05;;;;;;;10.25;6.95;;;;;;;21.66;49.60;94457.81;5023675;28;20029;-66
2021/10/12 03:29:31;;;;;;;9.85;7.35;;;;;;;21.64;49.78;94465.72;5025180;28;20021;-66
2021/10/12 03:31:59;;;;;;;10.70;7.50;;;;;;;21.63;49.79;94470.44;5024775;28;20443;-65
2021/10/12 03:34:28;;;;;;;10.90;7.20;;;;;;;21.65;49.74;94470.66;5024743;28;20061;-66
2021/10/12 03:36:56;;;;;;;10.50;7.28;;;;;;;21.64;49.68;94473.88;5024729;28;20132;-67
2021/10/12 03:39:22;;;;;;;10.77;7.18;;;;;;;21.61;49.82;94464.78;5025261;28;20025;-66
2021/10/12 03:41:47;;;;;;;9.70;7.13;;;;;;;21.65;49.81;94467.22;5023675;28;20045;-65
2021/10/12 03:44:13;;;;;;;10.10;7.03;;;;;;;21.64;49.84;94465.72;5024907;28;20033;-66
2021/10/12 03:46:38;;;;;;;9.93;7.13;;;;;;;21.64;49.81;94463.00;5024901;28;20037;-66
2021/10/12 03:49:04;;;;;;;9.90;7.32;;;;;;;21.62;49.68;94466.25;5024672;28;20032;-66
2021/10/12 03:51:29;;;;;;;10.65;7.13;;;;;;;21.63;49.72;94464.28;5025086;28;20033;-66
2021/10/12 03:53:55;;;;;;;10.25;6.82;;;;;;;21.62;49.76;94462.78;5024724;28;20029;-66
2021/10/12 03:56:20;;;;;;;9.80;6.85;;;;;;;21.61;49.75;94464.03;5023602;28;20033;-66
2021/10/12 03:58:45;;;;;;;10.70;7.03;;;;;;;21.61;49.68;94464.03;5024576;28;20037;-66
2021/10/12 04:01:11;;;;;;;9.43;6.93;;;;;;;21.61;49.81;94469.47;5024942;28;20032;-65
2021/10/12 04:03:36;;;;;;;10.43;6.88;;;;;;;21.61;49.78;94461.31;5024434;28;20064;-65
2021/10/12 04:06:02;;;;;;;9.45;7.03;;;;;;;21.60;49.64;94459.88;5024447;28;20026;-66
2021/10/12 04:08:27;;;;;;;9.68;6.55;;;;;;;21.61;49.88;94461.31;5024831;28;20102;-65
2021/10/12 04:10:53;;;;;;;9.57;7.07;;;;;;;21.57;49.95;94460.88;5024564;28;20084;-66
2021/10/12 04:13:20;;;;;;;10.25;6.65;;;;;;;21.60;49.79;94465.28;5024605;28;20511;-66
2021/10/12 04:15:45;;;;;;;9.80;7.15;;;;;;;21.59;49.92;94461.81;5024224;28;20032;-66
2021/10/12 04:18:11;;;;;;;9.25;6.57;;;;;;;21.59;49.64;94461.09;5024841;28;20013;-66
2021/10/12 04:20:36;;;;;;;9.75;6.70;;;;;;;21.58;49.86;94457.66;5024606;28;20021;-66
2021/10/12 04:23:03;;;;;;;10.05;6.63;;;;;;;21.58;49.66;94457.66;5024582;28;20075;-66
2021/10/12 04:25:28;;;;;;;8.57;6.22;;;;;;;21.58;49.86;94456.91;5024222;28;20032;-66
2021/10/12 04:27:53;;;;;;;10.23;6.47;;;;;;;21.57;49.66;94444.59;5024692;28;20034;-66
2021/10/12 04:30:19;;;;;;;9.35;6.32;;;;;;;21.57;49.84;94453.47;5024577;28;20033;-66
2021/10/12 04:32:44;;;;;;;9.18;6.22;;;;;;;21.56;49.93;94448.53;5026747;28;20021;-66
2021/10/12 04:35:10;;;;;;;8.55;6.10;;;;;;;21.56;49.61;94454.69;5027977;28;20033;-66
2021/10/12 04:37:35;;;;;;;8.43;6.13;;;;;;;21.55;49.76;94453.25;5027967;28;20030;-66
2021/10/12 04:40:01;;;;;;;8.07;5.70;;;;;;;21.56;49.86;94449.25;5027913;28;20022;-66
2021/10/12 04:42:26;;;;;;;7.95;5.45;;;;;;;21.55;49.89;94441.63;5028115;28;20022;-66
2021/10/12 04:44:54;;;;;;;8.65;5.72;;;;;;;21.55;49.88;94449.78;5027831;28;20022;-66
2021/10/12 04:47:20;;;;;;;7.60;5.47;;;;;;;21.54;49.81;94451.03;5028170;28;20025;-66
2021/10/12 04:49:46;;;;;;;8.20;5.72;;;;;;;21.52;49.81;94458.94;5028280;28;20107;-66
2021/10/12 04:52:12;;;;;;;7.82;5.50;;;;;;;21.51;49.97;94452.06;5028409;28;20047;-66
2021/10/12 04:54:37;;;;;;;8.63;5.80;;;;;;;21.54;49.76;94445.59;5026343;28;20606;-66
2021/10/12 04:57:02;;;;;;;8.63;5.57;;;;;;;21.52;49.66;94448.06;5027643;28;20041;-66
2021/10/12 04:59:28;;;;;;;7.68;5.60;;;;;;;21.52;49.89;94448.06;5027411;28;20025;-66
2021/10/12 05:01:54;;;;;;;8.00;5.80;;;;;;;21.53;49.80;94449.56;5027502;28;20115;-66
2021/10/12 05:04:19;;;;;;;7.78;5.22;;;;;;;21.54;49.80;94448.31;5058500;28;20506;-66
2021/10/12 05:06:44;;;;;;;8.70;5.70;;;;;;;21.54;49.85;94456.47;5043752;28;20610;-66
2021/10/12 05:09:10;;;;;;;8.43;5.85;;;;;;;21.52;50.61;94450.78;5047121;28;20352;-67
2021/10/12 05:11:35;;;;;;;8.35;5.53;;;;;;;21.51;51.59;94452.78;5046632;28;20025;-66
2021/10/12 05:14:01;;;;;;;8.73;5.07;;;;;;;21.54;51.37;94451.03;5045394;28;20460;-66
2021/10/12 05:16:28;;;;;;;7.95;5.57;;;;;;;21.56;51.19;94456.69;5033177;28;20028;-64
2021/10/12 05:18:57;;;;;;;9.70;5.65;;;;;;;21.59;51.76;94447.53;5043780;28;20061;-67
2021/10/12 05:21:23;;;;;;;8.70;5.20;;;;;;;21.63;51.73;94451.41;5042537;28;20028;-68
2021/10/12 05:23:48;;;;;;;9.10;5.63;;;;;;;21.69;51.82;94451.38;5035964;28;20030;-66
2021/10/12 05:26:14;;;;;;;8.70;5.28;;;;;;;21.77;51.69;94457.69;5026419;28;20037;-66
2021/10/12 05:28:39;;;;;;;7.28;5.07;;;;;;;21.87;51.61;94459.53;5026676;28;20680;-66
2021/10/12 05:31:04;;;;;;;13.15;7.80;;;;;;;21.95;54.11;94463.88;5026729;28;20018;-67
2021/10/12 05:33:30;;;;;;;45.90;29.42;;;;;;;22.02;53.24;94457.13;5026653;28;20118;-65
2021/10/12 05:35:56;;;;;;;37.13;21.85;;;;;;;22.12;53.61;94467.13;5042618;28;20021;-68
2021/10/12 05:38:22;;;;;;;28.20;18.45;;;;;;;22.21;52.95;94458.66;5041451;28;20081;-64
2021/10/12 05:40:48;;;;;;;23.90;14.55;;;;;;;22.26;52.58;94460.53;5037359;28;20033;-64
2021/10/12 05:43:14;;;;;;;19.90;13.20;;;;;;;22.33;52.43;94470.84;5026489;28;20030;-65
2021/10/12 05:45:39;;;;;;;19.60;12.80;;;;;;;22.42;51.98;94467.75;5038434;28;20584;-67
2021/10/12 05:48:07;;;;;;;19.70;13.10;;;;;;;22.47;51.62;94466.94;5042561;28;20040;-65
2021/10/12 05:50:34;;;;;;;19.25;12.52;;;;;;;22.53;51.39;94473.03;5044718;28;20158;-67
2021/10/12 05:58:14;;;;;;;14.52;10.27;;;;;;;22.74;50.79;94465.81;5041912;28;20025;-65
2021/10/12 06:00:39;;;;;;;17.50;10.18;;;;;;;22.81;50.69;94465.94;5040791;28;20515;-64
2021/10/12 06:03:05;;;;;;;15.48;10.43;;;;;;;22.85;50.59;94465.63;5043514;28;20033;-64
2021/10/12 06:05:30;;;;;;;14.60;10.20;;;;;;;22.90;50.40;94471.72;5042995;28;20017;-65
2021/10/12 06:07:56;;;;;;;15.07;9.55;;;;;;;22.96;50.07;94472.41;5045089;28;20021;-65
2021/10/12 06:10:21;;;;;;;16.33;10.38;;;;;;;23.03;49.61;94465.59;5043501;28;20019;-64
2021/10/12 06:12:47;;;;;;;16.35;10.05;;;;;;;23.06;49.44;94470.75;5043068;28;20037;-65
2021/10/12 06:15:12;;;;;;;15.40;9.85;;;;;;;23.13;49.56;94481.03;5044055;28;20070;-64
2021/10/12 06:17:38;;;;;;;13.93;9.43;;;;;;;23.16;48.51;94471.81;5043710;28;20109;-64
2021/10/12 06:20:03;;;;;;;16.08;9.93;;;;;;;23.23;48.94;94473.94;5044451;28;20029;-65
2021/10/12 06:22:29;;;;;;;14.73;9.20;;;;;;;23.27;48.18;94468.91;5040377;28;20025;-66
2021/10/12 06:24:54;;;;;;;14.73;9.15;;;;;;;23.32;48.05;94468.09;5041608;28;20064;-66
2021/10/12 06:27:20;;;;;;;13.48;8.45;;;;;;;23.36;47.95;94482.13;5042201;28;20481;-66
2021/10/12 06:29:46;;;;;;;12.02;8.70;;;;;;;23.41;47.60;94473.13;5042659;28;20035;-66
2021/10/12 06:32:12;;;;;;;10.95;8.18;;;;;;;23.40;47.71;94472.38;5040942;28;20025;-66
2021/10/12 06:34:37;;;;;;;11.90;8.38;;;;;;;23.47;47.70;94476.50;5043515;28;20028;-67
2021/10/12 06:37:03;;;;;;;13.90;9.02;;;;;;;23.50;47.35;94475.44;5044192;28;20024;-66
2021/10/12 06:39:28;;;;;;;11.27;8.18;;;;;;;23.53;47.72;94474.41;5041353;28;20498;-64
2021/10/12 06:41:54;;;;;;;11.45;7.82;;;;;;;23.60;47.57;94473.75;5033089;28;20096;-63
2021/10/12 06:44:19;;;;;;;13.35;8.88;;;;;;;23.59;47.19;94472.31;5037598;28;20312;-65
2021/10/12 06:46:45;;;;;;;10.82;7.72;;;;;;;23.65;47.19;94481.16;5039526;28;20407;-64
2021/10/12 06:49:11;;;;;;;11.27;7.55;;;;;;;23.71;46.96;94495.41;5043793;28;20017;-67
2021/10/12 06:51:36;;;;;;;11.60;7.88;;;;;;;23.78;46.74;94486.59;5042315;28;20404;-68
2021/10/12 06:54:02;;;;;;;10.73;7.22;;;;;;;23.83;46.31;94485.78;5041545;28;20487;-69
2021/10/12 06:56:27;;;;;;;11.10;7.07;;;;;;;23.82;46.65;94481.56;5038304;28;20554;-69
2021/10/12 06:58:53;;;;;;;11.88;6.95;;;;;;;23.81;46.14;94485.53;5037961;28;20495;-69
2021/10/12 07:01:18;;;;;;;10.77;7.45;;;;;;;23.77;46.70;94487.88;5037508;28;20082;-68
2021/10/12 07:03:44;;;;;;;10.52;7.00;;;;;;;23.74;46.16;94494.38;5040584;28;20053;-69
2021/10/12 07:06:09;;;;;;;9.57;6.78;;;;;;;23.70;46.20;94489.22;5042583;28;20021;-69
2021/10/12 07:08:34;;;;;;;9.60;6.45;;;;;;;23.66;46.51;94482.59;5041239;28;20009;-66
2021/10/12 07:11:00;;;;;;;8.63;6.22;;;;;;;23.64;46.32;94496.03;5042681;28;20020;-69
2021/10/12 07:13:29;;;;;;;9.75;6.15;;;;;;;23.61;46.41;94497.03;5042276;28;20032;-69
2021/10/12 07:15:57;;;;;;;10.43;6.03;;;;;;;23.53;46.64;94490.75;5039619;28;20112;-69
2021/10/12 07:18:23;;;;;;;9.23;6.35;;;;;;;23.51;46.83;94504.91;5032334;28;20124;-69
2021/10/12 07:20:49;;;;;;;9.70;6.18;;;;;;;23.48;46.80;94499.75;5024742;28;20132;-69
2021/10/12 07:23:14;;;;;;;10.02;5.95;;;;;;;23.41;46.52;94497.66;5026156;28;20040;-69
2021/10/12 07:25:40;;;;;;;9.10;5.95;;;;;;;23.42;46.55;94512.72;5029167;28;20052;-68
2021/10/12 07:28:05;;;;;;;8.35;5.75;;;;;;;23.37;46.74;94499.94;5029282;28;20025;-69
2021/10/12 07:30:31;;;;;;;9.20;5.97;;;;;;;23.34;46.97;94506.44;5041377;28;20789;-68
2021/10/12 07:32:56;;;;;;;8.18;5.57;;;;;;;23.30;47.29;94506.00;5033800;28;20029;-68
2021/10/12 07:35:22;;;;;;;10.10;6.35;;;;;;;23.27;47.42;94507.03;5017235;28;20411;-68
2021/10/12 07:37:47;;;;;;;9.15;5.85;;;;;;;23.25;47.01;94504.09;5035823;28;20633;-69
2021/10/12 07:40:13;;;;;;;9.10;6.00;;;;;;;23.23;47.44;94501.19;5042959;28;20051;-68
2021/10/12 07:42:39;;;;;;;9.63;5.57;;;;;;;23.19;47.36;94500.75;5041315;28;20056;-68
2021/10/12 07:45:04;;;;;;;8.90;5.50;;;;;;;23.16;47.49;94499.06;5043112;28;20025;-68
2021/10/12 07:47:30;;;;;;;9.65;6.30;;;;;;;23.11;47.87;94499.88;5042857;28;20112;-68
2021/10/12 07:49:55;;;;;;;7.88;5.38;;;;;;;23.09;47.67;94505.13;5039489;28;20017;-68
2021/10/12 07:52:21;;;;;;;10.07;5.72;;;;;;;23.05;47.37;94495.78;5009169;28;20036;-68
2021/10/12 07:54:52;;;;;;;9.07;5.78;;;;;;;23.05;47.48;94503.97;5021986;28;20025;-68
2021/10/12 07:57:17;;;;;;;9.32;5.93;;;;;;;22.99;47.50;94493.13;5018512;28;20026;-68
2021/10/12 07:59:43;;;;;;;8.40;5.40;;;;;;;22.99;47.35;94493.13;5021872;28;20079;-68
2021/10/12 08:02:11;;;;;;;8.55;5.80;;;;;;;23.01;47.54;94492.63;5028527;28;20049;-67
2021/10/12 08:04:38;;;;;;;8.82;5.88;;;;;;;22.95;47.65;94492.69;5024300;28;20311;-67
2021/10/12 08:07:04;;;;;;;9.30;6.30;;;;;;;22.97;47.50;94495.66;5024230;28;20171;-67
2021/10/12 08:09:29;;;;;;;7.25;5.45;;;;;;;22.96;47.54;94499.63;5028161;28;20025;-68
2021/10/12 08:11:56;;;;;;;8.88;5.70;;;;;;;22.95;47.54;94498.16;5027900;28;20602;-68
2021/10/12 08:14:23;;;;;;;8.52;5.60;;;;;;;22.95;47.88;94498.16;5028046;28;20456;-68
2021/10/12 08:16:49;;;;;;;8.65;5.70;;;;;;;22.90;47.74;94496.22;5027515;28;20025;-68
2021/10/12 08:19:14;;;;;;;8.13;5.43;;;;;;;22.92;48.07;94499.16;5026562;28;20040;-67
2021/10/12 08:21:39;;;;;;;10.23;5.50;;;;;;;22.90;47.63;94496.22;5026925;28;20021;-67
2021/10/12 08:24:08;;;;;;;8.65;5.60;;;;;;;22.90;47.75;94503.66;5027923;28;20495;-67
2021/10/12 08:26:33;;;;;;;8.70;6.10;;;;;;;22.89;47.55;94500.19;5027552;28;20028;-67
2021/10/12 08:28:59;;;;;;;8.82;6.03;;;;;;;22.88;47.84;94486.38;5041282;28;20017;-66
2021/10/12 08:31:24;;;;;;;9.23;6.25;;;;;;;22.88;47.76;94479.69;5043605;28;20536;-67
2021/10/12 08:33:50;;;;;;;8.18;5.28;;;;;;;22.86;48.02;94467.09;5044850;28;20091;-68
2021/10/12 08:36:15;;;;;;;8.45;5.93;;;;;;;22.86;47.50;94478.72;5044543;28;20040;-66
2021/10/12 08:38:41;;;;;;;7.53;5.50;;;;;;;22.87;47.80;94485.63;5058977;28;20033;-67
2021/10/12 08:41:07;;;;;;;8.88;5.28;;;;;;;22.85;47.61;94487.41;5045110;28;20024;-67
2021/10/12 08:43:36;;;;;;;8.30;5.22;;;;;;;22.86;48.04;94499.78;5045943;28;20013;-67
2021/10/12 08:46:02;;;;;;;8.13;5.35;;;;;;;22.84;47.55;94499.53;5043804;28;20027;-67
2021/10/12 08:48:28;;;;;;;9.23;5.75;;;;;;;22.85;47.86;94495.56;5038491;28;20417;-67
2021/10/12 08:50:53;;;;;;;7.82;5.07;;;;;;;22.84;47.76;94491.38;5037314;28;20033;-67
2021/10/12 08:53:19;;;;;;;8.02;5.13;;;;;;;22.84;47.71;94486.69;5026209;28;20125;-67
2021/10/12 08:55:44;;;;;;;10.48;5.43;;;;;;;22.84;47.79;94491.38;5027339;28;20022;-67
2021/10/12 08:58:11;;;;;;;7.60;4.93;;;;;;;22.84;47.75;94491.38;5027036;28;20029;-67
2021/10/12 09:00:37;;;;;;;8.25;4.85;;;;;;;22.83;47.63;94495.38;5039624;28;20091;-65
2021/10/12 09:05:53;;;;;;;8.23;5.38;;;;;;;22.85;48.16;94479.22;5039915;28;20102;-68
2021/10/12 09:08:26;;;;;;;9.43;5.20;;;;;;;22.89;48.51;94483.13;5037225;28;20495;-67
2021/10/12 09:10:52;;;;;;;7.68;5.53;;;;;;;22.91;48.12;94475.91;5043241;28;20160;-65
2021/10/12 09:13:17;;;;;;;6.53;4.30;;;;;;;22.96;48.28;94477.84;5039854;28;20459;-64
2021/10/12 09:16:07;;;;;;;7.03;4.40;;;;;;;23.02;48.71;94475.75;5034846;28;20025;-63
2021/10/12 09:18:55;;;;;;;6.45;4.28;;;;;;;23.08;48.40;94470.97;5023908;28;20040;-64
2021/10/12 09:21:25;;;;;;;6.68;4.70;;;;;;;23.16;48.06;94468.38;5026215;28;20040;-64
2021/10/12 09:24:01;;;;;;;7.93;4.72;;;;;;;23.23;48.23;94460.31;5026564;28;20041;-64
2021/10/12 09:26:28;;;;;;;6.43;4.25;;;;;;;23.34;47.72;94457.38;5026346;28;20033;-64
2021/10/12 09:28:58;;;;;;;8.80;4.32;;;;;;;23.44;47.87;94455.72;5025550;28;20555;-64
2021/10/12 09:31:37;;;;;;;7.45;4.57;;;;;;;23.56;47.83;94457.00;5031319;28;20094;-63
2021/10/12 09:34:04;;;;;;;5.70;4.07;;;;;;;23.65;47.75;94459.34;5026581;28;20017;-64
2021/10/12 09:36:31;;;;;;;6.32;4.13;;;;;;;23.77;47.76;94449.69;5042020;28;20431;-64
2021/10/12 09:38:57;;;;;;;6.28;4.22;;;;;;;23.86;47.09;94452.00;5042319;28;20435;-63
2021/10/12 09:41:26;;;;;;;7.50;4.32;;;;;;;23.93;47.38;94452.81;5045693;28;20028;-63
2021/10/12 09:43:52;;;;;;;7.83;4.43;;;;;;;24.05;47.04;94450.59;5027394;28;20188;-64
2021/10/12 09:46:23;;;;;;;7.18;4.18;;;;;;;24.18;46.36;94456.75;5026812;28;20022;-64
2021/10/12 09:48:49;;;;;;;13.05;4.35;;;;;;;24.29;46.67;94456.53;5025492;28;20507;-65
2021/10/12 09:51:15;;;;;;;6.90;4.15;;;;;;;24.37;45.92;94451.94;5058338;28;20036;-65
2021/10/12 09:53:43;;;;;;;5.80;3.85;;;;;;;24.46;45.69;94449.47;5044876;28;20024;-66
2021/10/12 09:56:08;;;;;;;6.53;4.15;;;;;;;24.54;45.79;94449.56;5030571;28;20119;-65
2021/10/12 09:58:34;;;;;;;6.70;4.38;;;;;;;24.61;45.34;94440.72;5035169;28;20095;-65
2021/10/12 10:01:00;;;;;;;6.45;4.18;;;;;;;24.66;45.39;94440.56;5027515;28;20031;-64
2021/10/12 10:03:27;;;;;;;6.35;4.40;;;;;;;24.68;44.94;94442.78;5043092;28;20049;-63
2021/10/12 10:05:53;;;;;;;6.57;4.00;;;;;;;24.77;45.18;94447.78;5042918;28;20029;-63
2021/10/12 10:08:19;;;;;;;5.93;3.80;;;;;;;24.84;44.72;94445.88;5057398;28;20029;-66
2021/10/12 10:10:44;;;;;;;6.28;4.65;;;;;;;24.91;44.32;94433.53;4979510;28;20563;-66
2021/10/12 10:13:10;;;;;;;5.78;3.55;;;;;;;24.99;44.23;94445.28;5054114;28;20029;-66
2021/10/12 10:15:35;;;;;;;6.55;4.20;;;;;;;25.03;44.16;94440.97;5038531;28;20017;-66
2021/10/12 10:18:01;;;;;;;6.43;3.90;;;;;;;25.07;43.99;94435.91;5039841;28;20040;-66
2021/10/12 10:20:27;;;;;;;6.78;4.35;;;;;;;25.11;44.05;94441.78;5041520;28;20036;-65
2021/10/12 10:22:56;;;;;;;5.78;3.72;;;;;;;25.17;43.77;94442.38;5038720;28;20464;-66
2021/10/12 10:25:35;;;;;;;6.30;3.70;;;;;;;25.23;43.58;94437.50;5037418;28;20030;-66
2021/10/12 10:28:15;;;;;;;6.25;4.20;;;;;;;25.31;43.69;94432.09;5025687;28;20192;-70
2021/10/12 10:30:50;;;;;;;6.30;4.05;;;;;;;25.32;43.23;94428.81;5040678;28;20029;-66
2021/10/12 10:33:29;;;;;;;5.35;3.35;;;;;;;25.35;43.20;94423.00;5044454;28;20028;-66
2021/10/12 10:36:01;;;;;;;5.03;3.70;;;;;;;25.34;43.07;94423.56;5025166;28;20037;-65
2021/10/12 10:38:42;;;;;;;5.63;3.53;;;;;;;25.31;43.37;94421.88;5025161;28;20021;-66
2021/10/12 10:41:10;;;;;;;7.30;4.03;;;;;;;25.28;43.04;94422.97;5023952;28;20044;-66
2021/10/12 10:43:48;;;;;;;5.88;3.88;;;;;;;25.26;43.18;94425.50;5025072;28;20104;-65
2021/10/12 10:46:43;;;;;;;6.75;4.47;;;;;;;25.21;43.12;94425.63;5025343;28;20029;-65
2021/10/12 10:49:20;;;;;;;5.30;3.40;;;;;;;25.13;43.52;94428.31;5026852;28;20936;-66
2021/10/12 10:51:49;;;;;;;6.40;4.07;;;;;;;25.08;43.29;94421.00;5044411;28;20021;-66
2021/10/12 10:54:36;;;;;;;7.15;4.18;;;;;;;25.00;43.54;94425.63;5044957;28;20071;-65
2021/10/12 10:57:16;;;;;;;5.88;3.72;;;;;;;24.96;43.69;94408.84;5044936;28;20036;-66
2021/10/12 10:59:41;;;;;;;6.50;3.97;;;;;;;24.89;43.59;94406.03;5043684;28;20068;-66
2021/10/12 11:02:42;;;;;;;5.63;3.80;;;;;;;24.82;43.81;94404.69;5044573;28;20033;-66
2021/10/12 11:05:08;;;;;;;5.20;3.90;;;;;;;24.75;44.03;94409.38;5001453;28;20053;-65
2021/10/12 11:07:33;;;;;;;6.45;4.13;;;;;;;24.69;43.86;94406.03;5044465;28;20159;-66
2021/10/12 11:09:58;;;;;;;5.85;4.10;;;;;;;24.64;44.30;94404.88;5045000;28;20025;-64
2021/10/12 11:12:27;;;;;;;7.10;4.68;;;;;;;24.51;44.30;94391.31;5044338;28;20106;-64
2021/10/12 11:14:55;;;;;;;6.35;4.13;;;;;;;24.50;44.62;94403.50;5044577;28;20036;-65
2021/10/12 11:17:20;;;;;;;6.68;4.15;;;;;;;24.43;44.32;94395.94;5033053;28;20029;-63
2021/10/12 11:19:52;;;;;;;6.28;4.15;;;;;;;24.38;44.49;94396.09;5024958;28;20761;-65
2021/10/12 11:22:17;;;;;;;7.22;4.53;;;;;;;24.32;44.72;94395.44;5026016;28;20774;-65
2021/10/12 11:24:44;;;;;;;11.48;5.95;;;;;;;24.27;44.96;94396.28;5024738;28;20037;-65
2021/10/12 11:27:09;;;;;;;7.78;4.47;;;;;;;24.26;44.74;94386.66;5023140;28;20521;-64
2021/10/12 11:29:35;;;;;;;6.97;4.18;;;;;;;24.20;44.34;94388.78;5024593;28;20029;-64
2021/10/12 11:32:04;;;;;;;5.85;4.25;;;;;;;24.16;45.04;94388.34;5023952;28;20025;-64
2021/10/12 11:34:31;;;;;;;8.38;4.40;;;;;;;24.07;44.17;94386.06;5024036;28;20033;-63
2021/10/12 11:37:09;;;;;;;6.40;4.30;;;;;;;24.07;44.62;94383.34;5021902;28;20533;-65